Time;durP1;ratioP1;P1;durP2;ratioP2;P2;SDS_P1;SDS_P2;PMS_P1;PMS_P2;Temp;Humidity;BMP_temperature;BMP_pressure;BME280_temperature;BME280_humidity;BME280_pressure;Samples;Min_cycle;Max_cycle;Signal;HPM_P1;HPM_P2
2021/01/02 00:02:14;;;;;;;17.17;9.00;;;;;;;-1.33;90.84;98560.63;5030981;28;20045;-81
2021/01/02 00:05:06;;;;;;;19.30;9.40;;;;;;;-1.36;90.58;98553.72;5030414;28;20500;-81
2021/01/02 00:08:11;;;;;;;15.37;8.40;;;;;;;-1.36;90.27;98561.72;5026670;28;20132;-81
2021/01/02 00:10:45;;;;;;;15.63;7.37;;;;;;;-1.38;90.28;98558.34;5030927;28;20057;-80
2021/01/02 00:13:24;;;;;;;15.50;8.37;;;;;;;-1.38;89.93;98560.19;5030514;28;20077;-81
2021/01/02 00:16:08;;;;;;;20.20;7.93;;;;;;;-1.51;90.10;98544.31;5028728;28;20061;-81
2021/01/02 00:18:37;;;;;;;15.03;7.93;;;;;;;-1.62;90.69;98540.69;5031246;28;20208;-81
2021/01/02 00:21:16;;;;;;;16.37;8.87;;;;;;;-1.69;90.16;98535.97;5031233;28;20410;-81
2021/01/02 00:24:21;;;;;;;17.40;8.20;;;;;;;-1.47;89.62;98556.44;5029932;28;20046;-81
2021/01/02 00:26:57;;;;;;;15.63;8.47;;;;;;;-1.69;90.31;98543.97;5027114;28;20049;-81
2021/01/02 00:29:25;;;;;;;16.30;8.40;;;;;;;-1.60;90.03;98532.56;5028011;28;20050;-81
2021/01/02 00:32:18;;;;;;;16.70;8.07;;;;;;;-1.47;89.95;98554.59;5027184;28;20049;-81
2021/01/02 00:35:04;;;;;;;15.63;8.30;;;;;;;-1.41;89.47;98566.59;5013905;28;20062;-80
2021/01/02 00:37:35;;;;;;;18.20;8.70;;;;;;;-1.64;89.61;98544.44;5030711;28;20057;-81
2021/01/02 00:40:08;;;;;;;20.53;9.23;;;;;;;-1.74;89.65;98539.00;5030455;28;20077;-80
2021/01/02 00:42:36;;;;;;;15.23;8.17;;;;;;;-1.65;90.46;98554.25;5030037;28;20049;-81
2021/01/02 00:45:06;;;;;;;13.67;7.10;;;;;;;-1.69;90.25;98557.28;5030488;28;20504;-81
2021/01/02 00:47:34;;;;;;;17.00;8.40;;;;;;;-1.80;89.77;98537.66;5030759;28;20050;-81
2021/01/02 00:50:04;;;;;;;13.67;6.73;;;;;;;-1.70;90.10;98563.59;5030208;28;20053;-81
2021/01/02 00:52:59;;;;;;;14.40;7.20;;;;;;;-1.72;89.69;98546.88;5028950;28;20049;-81
2021/01/02 00:55:44;;;;;;;14.13;7.47;;;;;;;-1.63;89.85;98562.13;5032104;28;20104;-81
2021/01/02 00:58:13;;;;;;;14.13;7.47;;;;;;;-1.62;89.83;98562.00;5026391;28;20111;-81
2021/01/02 01:00:41;;;;;;;17.05;7.97;;;;;;;-1.64;90.29;98563.09;5033945;28;20049;-81
2021/01/02 01:03:22;;;;;;;14.37;7.40;;;;;;;-1.72;90.38;98554.88;5033434;28;20057;-82
2021/01/02 01:05:49;;;;;;;12.33;6.97;;;;;;;-1.70;89.69;98556.44;5033449;28;20418;-82
2021/01/02 01:08:17;;;;;;;14.73;7.43;;;;;;;-1.59;89.81;98573.41;5033836;28;20053;-81
2021/01/02 01:10:44;;;;;;;13.00;7.17;;;;;;;-1.89;89.15;98527.75;5026664;28;20053;-81
2021/01/02 01:13:13;;;;;;;16.07;8.03;;;;;;;-1.81;90.00;98545.78;5034125;28;20054;-81
2021/01/02 01:15:41;;;;;;;16.20;6.73;;;;;;;-1.74;89.50;98557.66;5028605;28;20049;-81
2021/01/02 01:18:19;;;;;;;16.07;7.37;;;;;;;-1.73;89.34;98571.81;5033752;28;20064;-81
2021/01/02 01:20:48;;;;;;;16.27;6.93;;;;;;;-1.85;89.20;98552.31;5031336;28;20418;-82
2021/01/02 01:23:48;;;;;;;12.47;7.20;;;;;;;-1.74;89.12;98570.16;5033532;28;20053;-82
2021/01/02 01:26:42;;;;;;;13.50;6.80;;;;;;;-2.07;88.66;98554.00;5032388;28;20073;-81
2021/01/02 01:29:18;;;;;;;11.70;7.07;;;;;;;-1.96;89.11;98585.13;5033713;28;20073;-81
2021/01/02 01:31:47;;;;;;;11.77;6.23;;;;;;;-2.14;89.08;98560.78;5034205;28;20069;-81
2021/01/02 01:34:21;;;;;;;13.77;7.27;;;;;;;-2.13;89.12;98573.97;5030659;28;20060;-82
2021/01/02 01:36:50;;;;;;;16.00;7.47;;;;;;;-2.04;89.23;98593.72;5033624;28;20095;-82
2021/01/02 01:39:20;;;;;;;12.43;6.93;;;;;;;-2.16;89.09;98582.22;5034161;28;20626;-82
2021/01/02 01:41:46;;;;;;;;;;;;;;;-2.02;89.20;98609.59;5034074;28;20304;-81
2021/01/02 01:44:42;;;;;;;10.83;5.60;;;;;;;-2.14;89.35;98600.72;5032215;28;19921;-82
2021/01/02 01:47:21;;;;;;;10.60;6.17;;;;;;;-2.22;90.04;98603.97;5020624;28;20041;-82
2021/01/02 01:50:22;;;;;;;10.27;6.00;;;;;;;-2.20;89.53;98607.41;5036679;28;20053;-82
2021/01/02 01:53:28;;;;;;;11.50;6.20;;;;;;;-2.08;89.35;98610.91;5027569;28;20049;-82
2021/01/02 01:55:59;;;;;;;11.90;6.23;;;;;;;-2.08;89.04;98599.41;5030678;28;20053;-82
2021/01/02 01:58:42;;;;;;;10.47;5.90;;;;;;;-2.22;88.87;98587.16;5036350;28;20084;-82
2021/01/02 02:01:09;;;;;;;14.67;7.17;;;;;;;-2.25;88.86;98593.56;5035915;28;20041;-82
2021/01/02 02:03:47;;;;;;;11.77;6.23;;;;;;;-2.23;88.97;98589.00;5035874;28;20045;-82
2021/01/02 02:06:25;;;;;;;9.83;5.93;;;;;;;-2.33;88.77;98578.19;5035132;28;20045;-82
2021/01/02 02:08:58;;;;;;;10.70;5.37;;;;;;;-2.38;89.52;98584.81;5036008;28;20081;-82
2021/01/02 02:11:52;;;;;;;10.53;5.90;;;;;;;-2.23;89.74;98604.09;5035892;28;20049;-82
2021/01/02 02:14:31;;;;;;;12.03;6.07;;;;;;;-2.15;89.09;98599.91;5022429;28;20558;-82
2021/01/02 02:17:04;;;;;;;10.30;5.90;;;;;;;-2.18;89.53;98616.09;5033487;28;20512;-82
2021/01/02 02:19:54;;;;;;;9.37;5.40;;;;;;;-2.37;90.07;98595.34;5040763;28;20050;-82
2021/01/02 02:22:23;;;;;;;13.05;6.75;;;;;;;-2.18;89.75;98605.47;5035398;28;20056;-82
2021/01/02 02:24:52;;;;;;;10.73;6.22;;;;;;;-2.11;89.77;98600.50;5035308;28;20050;-82
2021/01/02 02:27:26;;;;;;;14.23;6.90;;;;;;;-2.08;89.43;98604.75;5035676;28;20429;-82
2021/01/02 02:30:06;;;;;;;9.37;5.57;;;;;;;-2.07;88.90;98603.78;5035829;28;20076;-82
2021/01/02 02:32:38;;;;;;;11.00;6.53;;;;;;;-2.33;89.37;98583.50;5035820;28;20049;-82
2021/01/02 02:35:08;;;;;;;10.80;5.97;;;;;;;-2.12;88.90;98601.47;5035533;28;20077;-82
2021/01/02 02:37:37;;;;;;;13.33;7.40;;;;;;;-2.15;88.86;98581.25;5035635;28;20104;-82
2021/01/02 02:40:06;;;;;;;10.35;5.60;;;;;;;-2.10;89.41;98599.53;5035775;28;20478;-82
2021/01/02 02:42:36;;;;;;;10.95;5.85;;;;;;;-2.22;89.03;98571.19;5035479;28;20103;-82
2021/01/02 02:45:04;;;;;;;11.40;6.77;;;;;;;-1.96;89.02;98602.00;5035363;28;20076;-82
2021/01/02 02:47:32;;;;;;;11.27;6.23;;;;;;;-1.95;89.27;98602.81;5035199;28;20056;-82
2021/01/02 02:50:00;;;;;;;11.47;6.83;;;;;;;-2.02;89.12;98588.28;5034009;28;20133;-82
2021/01/02 02:52:35;;;;;;;10.13;6.20;;;;;;;-2.09;89.59;98579.06;5035133;28;20120;-82
2021/01/02 02:55:02;;;;;;;11.93;7.07;;;;;;;-1.92;89.57;98601.75;5035462;28;20122;-82
2021/01/02 02:57:30;;;;;;;14.43;6.90;;;;;;;-1.96;89.54;98601.13;5035298;28;20057;-82
2021/01/02 02:59:56;;;;;;;13.03;6.80;;;;;;;-1.89;89.82;98602.34;5035104;28;20042;-82
2021/01/02 03:02:26;;;;;;;14.57;7.00;;;;;;;-1.80;88.87;98592.78;5033312;28;20057;-82
2021/01/02 03:04:53;;;;;;;17.83;7.82;;;;;;;-1.73;89.10;98614.47;5032149;28;20058;-82
2021/01/02 03:07:19;;;;;;;11.47;6.87;;;;;;;-1.76;88.93;98620.03;5034694;28;20054;-83
2021/01/02 03:09:47;;;;;;;13.67;7.43;;;;;;;-1.84;89.60;98605.47;5034869;28;20414;-82
2021/01/02 03:12:14;;;;;;;12.27;7.27;;;;;;;-1.97;89.79;98586.97;5035805;28;20038;-82
2021/01/02 03:14:40;;;;;;;13.57;7.07;;;;;;;-1.83;90.14;98620.50;5046091;28;20099;-82
2021/01/02 03:17:06;;;;;;;10.70;6.17;;;;;;;-2.06;90.24;98570.84;5034128;28;20045;-82
2021/01/02 03:19:33;;;;;;;12.07;6.03;;;;;;;-1.79;90.03;98615.81;5034716;28;20049;-83
2021/01/02 03:21:59;;;;;;;12.30;6.60;;;;;;;-1.97;90.11;98581.63;5034677;28;20076;-82
2021/01/02 03:24:26;;;;;;;12.03;6.67;;;;;;;-1.77;90.14;98615.69;5034342;28;20050;-82
2021/01/02 03:26:54;;;;;;;10.93;6.37;;;;;;;-1.77;90.02;98608.53;5034990;28;20049;-82
2021/01/02 03:29:20;;;;;;;14.13;7.03;;;;;;;-1.77;90.25;98605.88;5044993;28;20049;-82
2021/01/02 03:31:46;;;;;;;11.97;6.37;;;;;;;-1.71;89.72;98599.22;5054612;28;20053;-82
2021/01/02 03:34:13;;;;;;;12.87;6.30;;;;;;;-1.62;89.38;98622.47;5054156;28;20094;-82
2021/01/02 03:36:39;;;;;;;13.27;6.67;;;;;;;-1.77;89.86;98586.38;5054558;28;20052;-82
2021/01/02 03:39:06;;;;;;;10.87;5.40;;;;;;;-1.75;89.40;98592.44;5054330;28;20061;-82
2021/01/02 03:41:33;;;;;;;14.80;6.47;;;;;;;-1.65;89.02;98604.06;5041060;28;20048;-83
2021/01/02 03:44:00;;;;;;;13.97;6.37;;;;;;;-1.71;89.03;98585.88;5034130;28;20077;-82
2021/01/02 03:46:28;;;;;;;13.00;6.13;;;;;;;-1.84;89.64;98584.16;5042641;28;20060;-82
2021/01/02 03:48:55;;;;;;;13.80;6.30;;;;;;;-1.57;89.48;98614.13;5054040;28;20053;-82
2021/01/02 03:51:23;;;;;;;15.80;6.67;;;;;;;-1.71;89.87;98593.88;5048386;28;20057;-82
2021/01/02 03:53:49;;;;;;;11.50;6.37;;;;;;;-1.63;90.12;98597.63;5034062;28;20497;-82
2021/01/02 03:56:16;;;;;;;12.33;6.30;;;;;;;-1.61;89.48;98590.38;5034337;28;20065;-82
2021/01/02 03:58:42;;;;;;;13.70;6.27;;;;;;;-1.68;89.21;98573.16;5034799;28;20120;-82
2021/01/02 04:01:12;;;;;;;11.60;6.90;;;;;;;-1.61;88.61;98579.69;5033097;28;20041;-82
2021/01/02 04:03:41;;;;;;;;;;;;;;;-1.51;89.38;98598.47;5033147;28;20054;-82
2021/01/02 04:06:08;;;;;;;9.03;5.90;;;;;;;-1.57;88.88;98590.97;5034010;28;20310;-83
2021/01/02 04:08:34;;;;;;;12.13;6.17;;;;;;;-1.61;89.01;98574.38;5034029;28;20375;-83
2021/01/02 04:11:01;;;;;;;9.07;5.83;;;;;;;-1.56;89.03;98590.00;5033737;28;20053;-83
2021/01/02 04:13:27;;;;;;;9.83;5.47;;;;;;;-1.47;89.20;98594.59;5033719;28;20095;-83
2021/01/02 04:15:54;;;;;;;8.07;5.70;;;;;;;-1.56;89.75;98586.50;5034138;28;20065;-83
2021/01/02 04:18:22;;;;;;;11.17;5.80;;;;;;;-1.60;90.04;98593.88;5033849;28;20115;-82
2021/01/02 04:20:48;;;;;;;10.97;5.73;;;;;;;-1.74;90.10;98565.66;5033950;28;20054;-83
2021/01/02 04:23:15;;;;;;;15.03;7.37;;;;;;;-1.56;89.88;98582.00;5033560;28;20041;-83
2021/01/02 04:25:41;;;;;;;17.93;6.80;;;;;;;-1.52;89.93;98590.59;5033580;28;20054;-83
2021/01/02 04:28:09;;;;;;;15.77;7.73;;;;;;;-1.58;90.20;98570.63;5032879;28;20056;-83
2021/01/02 04:30:45;;;;;;;18.60;7.97;;;;;;;-1.48;90.31;98589.38;5033639;28;21711;-82
2021/01/02 04:33:11;;;;;;;15.93;7.43;;;;;;;-1.39;89.86;98590.47;5033597;28;20046;-83
2021/01/02 04:35:39;;;;;;;23.67;8.57;;;;;;;-1.39;89.79;98593.97;5033197;28;20132;-82
2021/01/02 04:38:05;;;;;;;16.37;7.00;;;;;;;-1.55;90.32;98574.84;5033760;28;20124;-83
2021/01/02 04:40:31;;;;;;;16.20;7.27;;;;;;;-1.50;90.22;98575.34;5033560;28;20099;-83
2021/01/02 04:42:58;;;;;;;14.23;6.80;;;;;;;-1.48;90.39;98576.06;5033470;28;20049;-82
2021/01/02 04:45:26;;;;;;;13.10;6.77;;;;;;;-1.51;90.21;98577.13;5033206;28;20053;-82
2021/01/02 04:47:53;;;;;;;20.77;7.60;;;;;;;-1.37;90.81;98597.38;5033059;28;20045;-83
2021/01/02 04:50:19;;;;;;;22.37;8.50;;;;;;;-1.33;90.82;98589.97;5032967;28;20049;-82
2021/01/02 04:52:49;;;;;;;19.27;7.93;;;;;;;-1.40;89.87;98570.09;5038048;28;20106;-82
2021/01/02 04:55:17;;;;;;;16.90;7.50;;;;;;;-1.26;90.23;98593.84;5052634;28;20067;-82
2021/01/02 04:57:47;;;;;;;17.83;7.53;;;;;;;-1.45;90.40;98571.31;5052653;28;20409;-83
2021/01/02 05:00:17;;;;;;;20.40;7.47;;;;;;;-1.40;90.61;98576.31;5052444;28;20041;-82
2021/01/02 05:02:47;;;;;;;18.73;8.10;;;;;;;-1.33;90.57;98596.16;5036892;28;20092;-82
2021/01/02 05:05:13;;;;;;;27.70;8.57;;;;;;;-1.35;90.94;98591.94;5032460;28;20050;-82
2021/01/02 05:07:40;;;;;;;27.47;9.43;;;;;;;-1.37;90.49;98596.50;5032761;28;20045;-82
2021/01/02 05:10:08;;;;;;;22.93;8.73;;;;;;;-1.37;90.80;98588.50;5048494;28;20512;-82
2021/01/02 05:12:35;;;;;;;26.23;10.20;;;;;;;-1.37;90.98;98601.84;5053015;28;20409;-82
2021/01/02 05:15:07;;;;;;;29.33;9.57;;;;;;;-1.30;91.28;98613.72;5042074;28;20045;-82
2021/01/02 05:17:33;;;;;;;33.50;10.90;;;;;;;-1.39;90.97;98598.47;5033010;28;20053;-82
2021/01/02 05:20:05;;;;;;;40.17;10.03;;;;;;;-1.33;91.34;98603.31;5037463;28;20040;-82
2021/01/02 05:22:32;;;;;;;34.90;9.80;;;;;;;-1.29;91.32;98604.75;5033503;28;20506;-82
2021/01/02 05:25:12;;;;;;;34.73;10.30;;;;;;;-1.19;91.77;98623.53;5032849;28;20053;-82
2021/01/02 05:27:40;;;;;;;35.50;10.33;;;;;;;-1.27;91.25;98608.16;5033287;28;20469;-82
2021/01/02 05:30:25;;;;;;;36.10;10.50;;;;;;;-1.21;90.97;98615.66;5032798;28;20140;-82
2021/01/02 05:33:01;;;;;;;44.00;10.30;;;;;;;-1.30;91.10;98600.41;5033262;28;20128;-83
2021/01/02 05:35:30;;;;;;;47.93;12.10;;;;;;;-1.28;91.20;98606.44;5032980;28;20103;-82
2021/01/02 05:38:15;;;;;;;30.77;9.60;;;;;;;-1.19;91.39;98618.19;5032895;28;20072;-82
2021/01/02 05:40:44;;;;;;;47.37;11.00;;;;;;;-1.44;91.72;98593.50;5036889;28;20057;-82
2021/01/02 05:43:11;;;;;;;38.13;10.77;;;;;;;-1.44;92.00;98610.34;5036601;28;20133;-82
2021/01/02 05:45:38;;;;;;;46.03;11.43;;;;;;;-1.27;91.77;98616.97;5036541;28;20076;-82
2021/01/02 05:48:16;;;;;;;45.47;12.00;;;;;;;-1.30;91.32;98595.91;5036670;28;20045;-82
2021/01/02 05:50:43;;;;;;;42.40;10.77;;;;;;;-1.27;91.48;98594.81;5036646;28;20049;-82
2021/01/02 05:53:24;;;;;;;57.03;11.53;;;;;;;-1.22;91.29;98605.94;5045340;28;20072;-82
2021/01/02 05:56:04;;;;;;;39.23;10.77;;;;;;;-1.13;91.33;98623.03;5036305;28;20053;-82
2021/01/02 05:58:32;;;;;;;34.47;11.43;;;;;;;-1.27;91.53;98600.97;5036711;28;20065;-81
2021/01/02 06:01:07;;;;;;;37.30;11.40;;;;;;;-1.29;91.58;98594.94;5035727;28;20061;-82
2021/01/02 06:03:35;;;;;;;36.17;10.07;;;;;;;-1.30;91.26;98603.91;5036123;28;20107;-82
2021/01/02 06:06:06;;;;;;;39.83;10.70;;;;;;;-1.22;91.64;98619.28;5036146;28;20481;-82
2021/01/02 06:08:35;;;;;;;32.83;10.73;;;;;;;-1.44;91.84;98594.34;5035663;28;20053;-82
2021/01/02 06:11:04;;;;;;;34.50;9.97;;;;;;;-1.34;91.54;98607.81;5035460;28;20056;-82
2021/01/02 06:13:33;;;;;;;33.00;10.85;;;;;;;-1.22;91.72;98626.44;5035919;28;20103;-82
2021/01/02 06:16:01;;;;;;;33.27;10.00;;;;;;;-1.34;91.77;98617.59;5035926;28;20057;-82
2021/01/02 06:18:29;;;;;;;40.03;10.30;;;;;;;-1.35;91.99;98630.09;5035988;28;20045;-82
2021/01/02 06:20:57;;;;;;;40.20;12.13;;;;;;;-1.29;92.64;98626.94;5035681;28;20054;-82
2021/01/02 06:23:24;;;;;;;35.40;11.03;;;;;;;-1.22;91.63;98627.28;5035691;28;20084;-83
2021/01/02 06:25:53;;;;;;;41.90;11.57;;;;;;;-1.14;91.63;98618.69;5035877;28;20406;-82
2021/01/02 06:28:20;;;;;;;41.87;12.07;;;;;;;-1.23;91.05;98606.06;5036088;28;20140;-82
2021/01/02 06:30:48;;;;;;;36.87;10.97;;;;;;;-1.36;91.59;98611.56;5035689;28;20453;-82
2021/01/02 06:33:15;;;;;;;37.07;10.53;;;;;;;-1.31;91.33;98618.22;5036021;28;20432;-82
2021/01/02 06:35:42;;;;;;;31.43;11.20;;;;;;;-1.31;91.80;98628.03;5035137;28;20482;-82
2021/01/02 06:38:11;;;;;;;33.77;11.67;;;;;;;-1.39;91.76;98612.63;5035051;28;20050;-82
2021/01/02 06:40:41;;;;;;;40.45;12.38;;;;;;;-1.19;92.05;98626.19;5035829;28;20081;-82
2021/01/02 06:43:08;;;;;;;45.72;12.02;;;;;;;-1.15;91.67;98623.16;5035342;28;20099;-82
2021/01/02 06:45:53;;;;;;;43.40;12.90;;;;;;;-1.17;91.72;98622.44;5034948;28;20064;-82
2021/01/02 06:48:43;;;;;;;44.13;12.63;;;;;;;-1.23;92.17;98606.94;5035249;28;20057;-82
2021/01/02 06:51:32;;;;;;;65.05;13.45;;;;;;;-1.31;92.53;98604.88;5034508;28;20045;-82
2021/01/02 06:54:00;;;;;;;58.00;13.48;;;;;;;-1.21;92.84;98622.81;5047151;28;20075;-82
2021/01/02 06:56:31;;;;;;;51.70;12.03;;;;;;;-1.23;92.36;98622.06;5054657;28;20053;-82
2021/01/02 06:58:58;;;;;;;53.17;11.33;;;;;;;-1.39;92.83;98596.63;5041924;28;20049;-82
2021/01/02 07:01:43;;;;;;;51.60;13.33;;;;;;;-1.18;92.74;98617.22;5015093;28;20403;-82
2021/01/02 07:04:11;;;;;;;51.07;12.07;;;;;;;-1.23;92.88;98606.94;5029743;28;20486;-82
2021/01/02 07:06:44;;;;;;;57.70;13.23;;;;;;;-1.15;92.49;98614.31;5034409;28;20057;-82
2021/01/02 07:09:27;;;;;;;46.57;12.80;;;;;;;-1.20;92.47;98595.19;5032681;28;20087;-83
2021/01/02 07:12:15;;;;;;;54.53;13.93;;;;;;;-1.08;93.18;98619.03;5028391;28;20122;-83
2021/01/02 07:14:43;;;;;;;50.77;13.97;;;;;;;-1.26;92.48;98599.19;5031205;28;20049;-82
2021/01/02 07:17:11;;;;;;;61.80;14.90;;;;;;;-1.11;92.93;98623.78;5031783;28;20056;-82
2021/01/02 07:19:43;;;;;;;53.87;13.90;;;;;;;-1.18;93.04;98619.91;5032813;28;20053;-80
2021/01/02 07:22:12;;;;;;;49.73;13.37;;;;;;;-1.31;92.54;98590.69;5032750;28;20091;-83
2021/01/02 07:24:41;;;;;;;61.40;14.85;;;;;;;-1.10;93.20;98620.97;5031658;28;20414;-82
2021/01/02 07:27:09;;;;;;;57.15;14.43;;;;;;;-1.19;92.68;98600.38;5032739;28;20053;-81
2021/01/02 07:29:37;;;;;;;52.97;14.50;;;;;;;-1.02;93.13;98625.69;5032710;28;20505;-82
2021/01/02 07:32:06;;;;;;;58.10;14.63;;;;;;;-1.10;92.42;98610.31;5031920;28;20038;-82
2021/01/02 07:34:33;;;;;;;60.93;15.03;;;;;;;-1.00;92.27;98625.56;5032459;28;20049;-82
2021/01/02 07:37:06;;;;;;;59.20;14.63;;;;;;;-1.00;92.66;98621.06;5031783;28;20057;-81
2021/01/02 07:39:33;;;;;;;48.83;15.00;;;;;;;-1.01;92.97;98622.06;5032405;28;20163;-82
2021/01/02 07:42:09;;;;;;;67.13;16.97;;;;;;;-0.94;92.62;98630.41;5032240;28;20045;-82
2021/01/02 07:44:39;;;;;;;54.70;15.63;;;;;;;-0.95;92.93;98628.69;5031412;28;20053;-82
2021/01/02 07:47:05;;;;;;;56.90;13.45;;;;;;;-0.96;93.31;98632.34;5032198;28;20493;-82
2021/01/02 07:49:33;;;;;;;50.57;15.83;;;;;;;-0.99;93.13;98633.44;5031911;28;20436;-81
2021/01/02 07:51:59;;;;;;;66.10;16.33;;;;;;;-1.00;93.16;98642.41;5032467;28;20046;-82
2021/01/02 07:54:34;;;;;;;56.43;16.00;;;;;;;-1.01;93.05;98640.75;5031752;28;20045;-82
2021/01/02 07:57:07;;;;;;;46.20;14.10;;;;;;;-0.86;93.21;98656.47;5032739;28;20053;-82
2021/01/02 07:59:37;;;;;;;40.37;11.80;;;;;;;-0.92;92.65;98649.78;5033665;28;20049;-83
2021/01/02 08:02:06;;;;;;;37.92;12.20;;;;;;;-0.83;91.87;98643.69;5033297;28;20068;-81
2021/01/02 08:04:34;;;;;;;44.10;12.60;;;;;;;-1.09;92.34;98622.66;5032348;28;20060;-79
2021/01/02 08:07:02;;;;;;;36.80;12.60;;;;;;;-0.91;92.28;98647.00;5031597;28;20060;-79
2021/01/02 08:09:33;;;;;;;32.87;12.20;;;;;;;-1.14;91.93;98618.69;5021867;28;20053;-80
2021/01/02 08:12:02;;;;;;;39.07;12.50;;;;;;;-1.08;91.83;98620.84;5031442;28;20041;-83
2021/01/02 08:14:31;;;;;;;30.77;11.77;;;;;;;-0.90;91.84;98640.69;5031158;28;20072;-82
2021/01/02 08:17:07;;;;;;;38.90;12.65;;;;;;;-1.07;91.74;98617.19;5030568;28;20059;-82
2021/01/02 08:19:37;;;;;;;32.47;12.00;;;;;;;-1.07;91.92;98611.84;5030207;28;20054;-81
2021/01/02 08:22:06;;;;;;;41.45;12.82;;;;;;;-0.82;91.81;98637.41;5033239;28;20053;-83
2021/01/02 08:24:32;;;;;;;41.53;11.47;;;;;;;-0.93;91.56;98632.09;5030591;28;20050;-82
2021/01/02 08:27:01;;;;;;;37.63;14.03;;;;;;;-1.03;91.10;98618.66;5030754;28;20045;-82
2021/01/02 08:29:28;;;;;;;37.20;12.37;;;;;;;-0.88;92.14;98637.06;5031702;28;20490;-82
2021/01/02 08:31:58;;;;;;;33.33;11.87;;;;;;;-0.81;91.47;98641.78;5030879;28;20431;-82
2021/01/02 08:34:31;;;;;;;34.00;12.73;;;;;;;-0.76;91.45;98644.06;5029804;28;20041;-82
2021/01/02 08:37:03;;;;;;;35.43;12.17;;;;;;;-0.92;91.74;98615.09;5031160;28;20054;-82
2021/01/02 08:39:30;;;;;;;33.40;11.13;;;;;;;-0.72;91.25;98646.34;5031655;28;20456;-82
2021/01/02 08:41:59;;;;;;;36.87;12.43;;;;;;;-0.91;90.95;98614.13;5031470;28;20049;-82
2021/01/02 08:44:31;;;;;;;35.90;11.47;;;;;;;-0.88;90.88;98615.72;5030244;28;20042;-82
2021/01/02 08:46:59;;;;;;;33.43;11.43;;;;;;;-0.76;91.12;98633.38;5031248;28;20441;-82
2021/01/02 08:49:34;;;;;;;30.43;12.97;;;;;;;-0.67;89.81;98634.47;5023794;28;20429;-82
2021/01/02 08:52:19;;;;;;;27.13;10.43;;;;;;;-0.69;90.34;98645.25;5030255;28;20182;-82
2021/01/02 08:54:46;;;;;;;32.63;11.67;;;;;;;-0.74;90.23;98634.09;5023891;28;20112;-82
2021/01/02 08:57:29;;;;;;;28.53;10.87;;;;;;;-0.70;89.90;98645.38;5030656;28;20421;-82
2021/01/02 09:00:23;;;;;;;28.50;10.57;;;;;;;-0.72;90.83;98633.00;5030220;28;20045;-82
2021/01/02 09:03:05;;;;;;;29.70;11.87;;;;;;;-0.55;89.63;98642.28;5015862;28;20493;-82
2021/01/02 09:05:33;;;;;;;31.73;10.97;;;;;;;-0.58;89.72;98649.72;5028495;28;20045;-82
2021/01/02 09:08:02;;;;;;;28.37;11.53;;;;;;;-0.51;89.53;98660.72;5030792;28;20052;-83
2021/01/02 09:10:31;;;;;;;40.90;13.13;;;;;;;-0.64;89.86;98629.69;5030030;28;20045;-82
2021/01/02 09:13:23;;;;;;;38.40;11.80;;;;;;;-0.36;90.27;98654.13;5030488;28;20046;-82
2021/01/02 09:15:57;;;;;;;37.23;12.83;;;;;;;-0.37;89.98;98649.75;5033118;28;20103;-81
2021/01/02 09:18:39;;;;;;;38.00;13.67;;;;;;;-0.52;89.49;98630.50;5016810;28;20053;-82
2021/01/02 09:21:27;;;;;;;36.90;13.83;;;;;;;-0.48;89.66;98621.28;5034056;28;20053;-81
2021/01/02 09:23:54;;;;;;;43.10;14.63;;;;;;;-0.26;89.85;98646.16;5016671;28;20336;-82
2021/01/02 09:26:23;;;;;;;34.77;13.47;;;;;;;-0.24;90.34;98639.72;5034123;28;20490;-82
2021/01/02 09:28:51;;;;;;;29.70;11.67;;;;;;;-0.33;89.43;98642.31;5033426;28;20504;-81
2021/01/02 09:31:18;;;;;;;30.13;11.80;;;;;;;-0.21;89.88;98642.16;5034260;28;20295;-81
2021/01/02 09:33:45;;;;;;;27.70;11.77;;;;;;;-0.21;88.65;98622.56;5034004;28;20052;-81
2021/01/02 09:36:13;;;;;;;26.97;10.83;;;;;;;-0.24;89.16;98636.19;5033339;28;20111;-81
2021/01/02 09:38:40;;;;;;;32.92;12.45;;;;;;;-0.32;89.57;98625.31;5034113;28;20073;-81
2021/01/02 09:41:08;;;;;;;35.30;14.97;;;;;;;-0.13;89.08;98622.78;5034484;28;20057;-82
2021/01/02 09:43:35;;;;;;;43.90;14.90;;;;;;;0.10;89.27;98649.38;5034362;28;20414;-81
2021/01/02 09:46:01;;;;;;;37.83;13.85;;;;;;;-0.04;88.92;98622.00;5033216;28;20057;-81
2021/01/02 09:48:27;;;;;;;34.37;13.83;;;;;;;0.20;89.64;98652.97;5033843;28;20049;-80
2021/01/02 09:50:54;;;;;;;29.10;13.50;;;;;;;0.24;88.23;98646.38;5034394;28;20556;-81
2021/01/02 09:53:20;;;;;;;35.23;14.83;;;;;;;0.35;87.29;98635.59;5033758;28;20042;-81
2021/01/02 09:55:47;;;;;;;37.57;14.30;;;;;;;0.27;86.88;98629.22;5033705;28;20061;-80
2021/01/02 09:58:14;;;;;;;25.93;12.70;;;;;;;0.21;87.24;98637.75;5033643;28;20038;-81
2021/01/02 10:00:41;;;;;;;32.10;13.73;;;;;;;0.30;87.17;98642.31;5033481;28;20057;-80
2021/01/02 10:03:09;;;;;;;25.43;10.43;;;;;;;0.29;88.39;98659.34;5033165;28;20096;-81
2021/01/02 10:05:35;;;;;;;25.87;11.47;;;;;;;0.22;88.38;98645.66;5032265;28;20057;-81
2021/01/02 10:08:02;;;;;;;31.13;11.17;;;;;;;0.20;88.79;98641.41;5019573;28;20053;-81
2021/01/02 10:10:29;;;;;;;22.27;9.53;;;;;;;0.28;89.29;98650.47;5035238;28;20119;-81
2021/01/02 10:12:56;;;;;;;21.23;9.90;;;;;;;0.19;88.14;98626.38;5035244;28;20045;-81
2021/01/02 10:15:23;;;;;;;26.47;11.13;;;;;;;0.24;88.15;98643.72;5034871;28;20045;-81
2021/01/02 10:17:50;;;;;;;21.33;9.73;;;;;;;0.39;88.47;98654.03;5035104;28;20057;-81
2021/01/02 10:20:17;;;;;;;24.90;11.07;;;;;;;0.44;87.60;98657.19;5035148;28;20041;-81
2021/01/02 10:22:43;;;;;;;23.63;11.27;;;;;;;0.50;87.20;98654.81;5035356;28;20057;-81
2021/01/02 10:25:11;;;;;;;23.63;10.27;;;;;;;0.56;86.12;98639.19;5034483;28;20047;-81
2021/01/02 10:27:56;;;;;;;28.73;11.27;;;;;;;0.69;87.46;98658.53;5035321;28;20045;-81
2021/01/02 10:30:24;;;;;;;25.70;10.33;;;;;;;0.64;86.59;98640.22;5035477;28;20057;-80
2021/01/02 10:32:50;;;;;;;21.37;10.37;;;;;;;0.76;86.44;98646.31;5035707;28;20045;-81
2021/01/02 10:35:17;;;;;;;22.53;10.77;;;;;;;0.71;86.55;98627.16;5034988;28;20471;-81
2021/01/02 10:37:47;;;;;;;22.50;10.23;;;;;;;0.81;86.21;98641.44;5034455;28;20131;-82
2021/01/02 10:40:15;;;;;;;26.63;10.82;;;;;;;0.99;85.85;98643.44;5034295;28;20079;-82
2021/01/02 10:42:41;;;;;;;16.58;8.43;;;;;;;0.63;85.90;98595.75;5034990;28;20053;-82
2021/01/02 10:45:11;;;;;;;17.13;9.47;;;;;;;0.87;85.75;98615.94;5032402;28;20046;-82
2021/01/02 10:47:41;;;;;;;20.65;9.43;;;;;;;1.05;84.86;98632.19;5035457;28;20045;-82
2021/01/02 10:50:08;;;;;;;21.05;10.57;;;;;;;1.10;85.09;98618.38;5035237;28;20064;-82
2021/01/02 10:52:35;;;;;;;18.38;9.30;;;;;;;0.93;85.46;98593.97;5052095;28;20049;-83
2021/01/02 10:55:01;;;;;;;17.20;8.32;;;;;;;1.18;84.04;98605.16;5055384;28;20052;-81
2021/01/02 10:57:29;;;;;;;18.85;9.88;;;;;;;1.25;84.21;98619.69;5054959;28;20056;-81
2021/01/02 10:59:56;;;;;;;18.65;9.07;;;;;;;1.24;83.68;98588.53;5052236;28;20412;-81
2021/01/02 11:02:24;;;;;;;18.45;8.55;;;;;;;1.22;83.66;98609.25;5034320;28;20090;-82
2021/01/02 11:04:53;;;;;;;17.95;9.80;;;;;;;1.04;84.37;98582.31;5035239;28;20049;-82
2021/01/02 11:07:23;;;;;;;19.75;10.32;;;;;;;1.06;84.94;98575.81;5034118;28;20053;-82
2021/01/02 11:09:50;;;;;;;16.90;9.07;;;;;;;1.13;85.52;98596.69;5034983;28;20088;-82
2021/01/02 11:12:16;;;;;;;18.73;9.93;;;;;;;1.30;84.74;98593.34;5034447;28;20045;-82
2021/01/02 11:14:52;;;;;;;20.90;10.23;;;;;;;1.18;83.77;98565.00;5034662;28;20073;-82
2021/01/02 11:17:24;;;;;;;21.10;9.95;;;;;;;1.29;83.70;98572.88;5033433;28;20100;-81
2021/01/02 11:19:55;;;;;;;19.83;9.85;;;;;;;1.16;84.22;98575.00;5033061;28;20061;-81
2021/01/02 11:22:22;;;;;;;26.77;10.52;;;;;;;1.10;84.77;98559.47;5034472;28;20140;-80
2021/01/02 11:24:49;;;;;;;22.15;10.40;;;;;;;1.24;84.35;98562.59;5033155;28;20050;-81
2021/01/02 11:27:20;;;;;;;21.55;9.88;;;;;;;1.31;84.34;98559.34;5033122;28;20050;-81
2021/01/02 11:29:54;;;;;;;19.00;10.73;;;;;;;1.48;83.88;98564.00;5032858;28;20099;-81
2021/01/02 11:32:20;;;;;;;25.20;11.10;;;;;;;1.45;84.31;98544.72;5030116;28;20529;-81
2021/01/02 11:34:46;;;;;;;20.88;11.18;;;;;;;1.50;83.69;98540.59;5035969;28;20049;-82
2021/01/02 11:37:14;;;;;;;22.30;10.95;;;;;;;1.54;83.79;98530.47;5031502;28;20071;-81
2021/01/02 11:39:43;;;;;;;20.15;10.68;;;;;;;1.35;83.43;98534.00;5034025;28;20133;-82
2021/01/02 11:42:14;;;;;;;25.15;11.32;;;;;;;1.42;81.67;98530.59;5033008;28;20068;-81
2021/01/02 11:44:47;;;;;;;23.10;10.85;;;;;;;1.44;81.69;98519.75;5031313;28;20060;-81